Map

Track Data

SID SEASON NUMBER BASIN SUBBASIN NAME ISO_TIME NATURE LAT LON WMO_WIND WMO_PRES WMO_AGENCY TRACK_TYPE DIST2LAND LANDFALL IFLAG USA_AGENCY USA_ATCF_ID USA_LAT USA_LON USA_RECORD USA_STATUS USA_WIND USA_PRES USA_SSHS USA_R34_NE USA_R34_SE USA_R34_SW USA_R34_NW USA_R50_NE USA_R50_SE USA_R50_SW USA_R50_NW USA_R64_NE USA_R64_SE USA_R64_SW USA_R64_NW USA_POCI USA_ROCI USA_RMW USA_EYE TOKYO_LAT TOKYO_LON TOKYO_GRADE TOKYO_WIND TOKYO_PRES TOKYO_R50_DIR TOKYO_R50_LONG TOKYO_R50_SHORT TOKYO_R30_DIR TOKYO_R30_LONG TOKYO_R30_SHORT TOKYO_LAND CMA_LAT CMA_LON CMA_CAT CMA_WIND CMA_PRES HKO_LAT HKO_LON HKO_CAT HKO_WIND HKO_PRES NEWDELHI_LAT NEWDELHI_LON NEWDELHI_GRADE NEWDELHI_WIND NEWDELHI_PRES NEWDELHI_CI NEWDELHI_DP NEWDELHI_POCI REUNION_LAT REUNION_LON REUNION_TYPE REUNION_WIND REUNION_PRES REUNION_TNUM REUNION_CI REUNION_RMW REUNION_R34_NE REUNION_R34_SE REUNION_R34_SW REUNION_R34_NW REUNION_R50_NE REUNION_R50_SE REUNION_R50_SW REUNION_R50_NW REUNION_R64_NE REUNION_R64_SE REUNION_R64_SW REUNION_R64_NW BOM_LAT BOM_LON BOM_TYPE BOM_WIND BOM_PRES BOM_TNUM BOM_CI BOM_RMW BOM_R34_NE BOM_R34_SE BOM_R34_SW BOM_R34_NW BOM_R50_NE BOM_R50_SE BOM_R50_SW BOM_R50_NW BOM_R64_NE BOM_R64_SE BOM_R64_SW BOM_R64_NW BOM_ROCI BOM_POCI BOM_EYE BOM_POS_METHOD BOM_PRES_METHOD NADI_LAT NADI_LON NADI_CAT NADI_WIND NADI_PRES WELLINGTON_LAT WELLINGTON_LON WELLINGTON_WIND WELLINGTON_PRES DS824_LAT DS824_LON DS824_STAGE DS824_WIND DS824_PRES TD9636_LAT TD9636_LON TD9636_STAGE TD9636_WIND TD9636_PRES TD9635_LAT TD9635_LON TD9635_WIND TD9635_PRES TD9635_ROCI NEUMANN_LAT NEUMANN_LON NEUMANN_CLASS NEUMANN_WIND NEUMANN_PRES MLC_LAT MLC_LON MLC_CLASS MLC_WIND MLC_PRES USA_GUST BOM_GUST BOM_GUST_PER REUNION_GUST REUNION_GUST_PER USA_SEAHGT USA_SEARAD_NE USA_SEARAD_SE USA_SEARAD_SW USA_SEARAD_NW STORM_SPEED STORM_DIR
1869345S18074 1870 26 SI MM NOT_NAMED 1869-12-10 18:00:00 NR -18.2000 73.5000 main 1664 1662 __________O___ -1 -18.2000 73.5000 7 2 0
1869345S18074 1870 26 SI MM NOT_NAMED 1869-12-10 21:00:00 NR -18.2702 73.5285 main 1662 1662 __________P___ -1 -18.2702 73.5285 7 2 157
1869345S18074 1870 26 SI MM NOT_NAMED 1869-12-11 00:00:00 NR -18.3623 73.5756 main 1670 1668 __________P___ -1 -18.3623 73.5756 7 3 152
1869345S18074 1870 26 SI MM NOT_NAMED 1869-12-11 03:00:00 NR -18.4983 73.6599 main 1679 1677 __________P___ -1 -18.4983 73.6599 7 4 148
1869345S18074 1870 26 SI MM NOT_NAMED 1869-12-11 06:00:00 NR -18.7000 73.8000 main 1685 1684 __________O___ -1 -18.7000 73.8000 7 6 146
1869345S18074 1870 26 SI MM NOT_NAMED 1869-12-11 09:00:00 NR -18.9799 74.0072 main 1701 1701 __________P___ -1 -18.9799 74.0072 7 8 144
1869345S18074 1870 26 SI MM NOT_NAMED 1869-12-11 12:00:00 NR -19.3128 74.2617 main 1729 1727 __________P___ -1 -19.3128 74.2617 7 9 144
1869345S18074 1870 26 SI MM NOT_NAMED 1869-12-11 15:00:00 NR -19.6643 74.5354 main 1745 1745 __________P___ -1 -19.6643 74.5354 7 9 144
1869345S18074 1870 26 SI MM NOT_NAMED 1869-12-11 18:00:00 NR -20.0000 74.8000 main 1773 1773 __________O___ -1 -20.0000 74.8000 7 7 144
1869345S18074 1870 26 SI MM NOT_NAMED 1869-12-11 21:00:00 NR -20.2632 75.0069 main 1792 1792 __________P___ -1 -20.2632 75.0069 7 6 144
1869345S18074 1870 26 SI MM NOT_NAMED 1869-12-12 00:00:00 NR -20.5072 75.2009 main 1812 1812 __________P___ -1 -20.5072 75.2009 7 6 143
1869345S18074 1870 26 SI MM NOT_NAMED 1869-12-12 03:00:00 NR -20.7476 75.3944 main 1832 1832 __________P___ -1 -20.7476 75.3944 7 6 143
1869345S18074 1870 26 SI MM NOT_NAMED 1869-12-12 06:00:00 NR -21.0000 75.6000 main 1852 1852 __________O___ -1 -21.0000 75.6000 7 7 143
1869345S18074 1870 26 SI MM NOT_NAMED 1869-12-12 09:00:00 NR -21.2897 75.8356 main 1873 1873 __________P___ -1 -21.2897 75.8356 7 7 143
1869345S18074 1870 26 SI MM NOT_NAMED 1869-12-12 12:00:00 NR -21.5925 76.0850 main 1904 1904 __________P___ -1 -21.5925 76.0850 7 8 142
1869345S18074 1870 26 SI MM NOT_NAMED 1869-12-12 15:00:00 NR -21.8990 76.3419 main 1925 1925 __________P___ -1 -21.8990 76.3419 7 8 142
1869345S18074 1870 26 SI MM NOT_NAMED 1869-12-12 18:00:00 NR -22.2000 76.6000 main 1958 1958 __________O___ -1 -22.2000 76.6000 7 7 142
1869345S18074 1870 26 SI MM NOT_NAMED 1869-12-12 21:00:00 NR -22.4366 76.7955 main 1979 1979 __________P___ -1 -22.4366 76.7955 7 6 142
1869345S18074 1870 26 SI MM NOT_NAMED 1869-12-13 00:00:00 NR -22.6735 76.9988 main 2002 2002 __________P___ -1 -22.6735 76.9988 7 7 140
1869345S18074 1870 26 SI MM NOT_NAMED 1869-12-13 03:00:00 NR -22.9487 77.2526 main 2034 2034 __________P___ -1 -22.9487 77.2526 7 8 139
1869345S18074 1870 26 SI MM NOT_NAMED 1869-12-13 06:00:00 NR -23.3000 77.6000 main 2069 2069 __________O___ -1 -23.3000 77.6000 7 11 137
1869345S18074 1870 26 SI MM NOT_NAMED 1869-12-13 09:00:00 NR -23.7837 78.0898 main 2125 2125 __________P___ -1 -23.7837 78.0898 7 14 137
1869345S18074 1870 26 SI MM NOT_NAMED 1869-12-13 12:00:00 NR -24.3408 78.6781 main 2193 2193 __________P___ -1 -24.3408 78.6781 7 16 135
1869345S18074 1870 26 SI MM NOT_NAMED 1869-12-13 15:00:00 NR -24.9273 79.3277 main 2262 2262 __________P___ -1 -24.9273 79.3277 7 17 134
1869345S18074 1870 26 SI MM NOT_NAMED 1869-12-13 18:00:00 NR -25.5000 80.0000 main 2342 2342 __________O___ -1 -25.5000 80.0000 7 16 132
1869345S18074 1870 26 SI MM NOT_NAMED 1869-12-13 21:00:00 NR -26.0257 80.6626 main 2421 2421 __________P___ -1 -26.0257 80.6626 7 16 131
1869345S18074 1870 26 SI MM NOT_NAMED 1869-12-14 00:00:00 NR -26.5087 81.3131 main 2490 2490 __________P___ -1 -26.5087 81.3131 7 15 129
1869345S18074 1870 26 SI MM NOT_NAMED 1869-12-14 03:00:00 NR -26.9624 81.9570 main 2569 2569 __________P___ -1 -26.9624 81.9570 7 15 128
1869345S18074 1870 26 SI MM NOT_NAMED 1869-12-14 06:00:00 NR -27.4000 82.6000 main 2628 __________O___ -1 -27.4000 82.6000 7 14 128

About IBTrACS Database

This database is a web-friendly format of International Best Track Archive for Climate Stewardship (IBTrACS), a global best track data archive curated by NOAA dating back to 1842.

Updated: 2021-11-26